UAE38T EGBB-OMDB
Flight info
| Callsign | UAE38T |
|---|---|
| Flight time | N/A |
| Altitude | 23000 |
| Route | ADMEX Y321 EMKUK L612 COWLY/N0490F330 Q70 BIG/N0485F350 UL9 KONAN DCT KOK DCT SISGA DCT RITAX DCT EDISA DCT PICWI DCT UTABA DCT BEMKI DCT ELMEM DCT DIRAB DCT PEVAL DCT AIOSA DCT LATAN DCT SALUN N705 MMA P751 DASUM Y234 FYM M872 LUBOS/N0488F370 M872 BDB Y214 RAPMA DCT KUVSO DCT KATIT DCT PEKEM M628 RIGIL G783 ELUDA/N0501F350 G783 ASPED Q308 KIPOK Q568 IMPED |
| Aircraft | B77W/H-SDE1E2E3FGHIJ2J3J4J5M1RWXY/LB1D1 |
Departure
| Time | 2026-05-03 20:26 |
|---|---|
| Airport | Birmingham Airport (EGBB) |
Arrival
| Time | N/A |
|---|---|
| Airport | Dubai International Airport (OMDB) |
| Time | Latitude | Longitude | Altitude | Speed | Heading |
|---|---|---|---|---|---|
| 2026-05-03 20:15 | 52.45279 | -1.73828 | 328 ft | 0 kts | 146° |
| 2026-05-03 20:17 | 52.45284 | -1.73832 | 324 ft | 3 kts | 146° |
| 2026-05-03 20:17 | 52.45299 | -1.73850 | 323 ft | 3 kts | 146° |
| 2026-05-03 20:18 | 52.45316 | -1.73866 | 323 ft | 3 kts | 169° |
| 2026-05-03 20:18 | 52.45336 | -1.73865 | 323 ft | 3 kts | 208° |
| 2026-05-03 20:18 | 52.45350 | -1.73846 | 323 ft | 1 kts | 236° |
| 2026-05-03 20:18 | 52.45351 | -1.73845 | 323 ft | 0 kts | 236° |
| 2026-05-03 20:21 | 52.45332 | -1.73890 | 323 ft | 11 kts | 236° |
| 2026-05-03 20:21 | 52.45273 | -1.73950 | 324 ft | 11 kts | 172° |
| 2026-05-03 20:21 | 52.45205 | -1.73883 | 324 ft | 11 kts | 146° |
| 2026-05-03 20:22 | 52.45139 | -1.73811 | 325 ft | 11 kts | 146° |
| 2026-05-03 20:22 | 52.45067 | -1.73758 | 325 ft | 11 kts | 167° |
| 2026-05-03 20:22 | 52.44997 | -1.73698 | 325 ft | 11 kts | 144° |
| 2026-05-03 20:22 | 52.44929 | -1.73633 | 324 ft | 12 kts | 172° |
| 2026-05-03 20:23 | 52.44851 | -1.73670 | 326 ft | 12 kts | 196° |
| 2026-05-03 20:23 | 52.44773 | -1.73707 | 325 ft | 12 kts | 196° |
| 2026-05-03 20:23 | 52.44697 | -1.73700 | 324 ft | 12 kts | 155° |
| 2026-05-03 20:23 | 52.44622 | -1.73628 | 324 ft | 16 kts | 144° |
| 2026-05-03 20:24 | 52.44496 | -1.73487 | 325 ft | 24 kts | 146° |
| 2026-05-03 20:24 | 52.44446 | -1.73431 | 324 ft | 4 kts | 146° |
| 2026-05-03 20:24 | 52.44419 | -1.73412 | 324 ft | 4 kts | 169° |
| 2026-05-03 20:24 | 52.44390 | -1.73422 | 324 ft | 4 kts | 203° |
| 2026-05-03 20:25 | 52.44366 | -1.73455 | 324 ft | 5 kts | 224° |
| 2026-05-03 20:25 | 52.44338 | -1.73518 | 326 ft | 7 kts | 238° |
| 2026-05-03 20:25 | 52.44323 | -1.73598 | 326 ft | 8 kts | 284° |
| 2026-05-03 20:25 | 52.44371 | -1.73673 | 326 ft | 17 kts | 323° |
| 2026-05-03 20:26 | 52.44643 | -1.73974 | 328 ft | 93 kts | 327° |
| 2026-05-03 20:26 | 52.45464 | -1.74884 | 334 ft | 190 kts | 327° |
| 2026-05-03 20:26 | 52.46662 | -1.76315 | 870 ft | 234 kts | 324° |
| 2026-05-03 20:26 | 52.48002 | -1.77922 | 2190 ft | 248 kts | 327° |
| 2026-05-03 20:27 | 52.49391 | -1.79409 | 3511 ft | 229 kts | 333° |
| 2026-05-03 20:27 | 52.50931 | -1.79907 | 4339 ft | 232 kts | 8° |
| 2026-05-03 20:27 | 52.52439 | -1.78918 | 5006 ft | 239 kts | 37° |
| 2026-05-03 20:27 | 52.53525 | -1.76836 | 5653 ft | 244 kts | 65° |
| 2026-05-03 20:28 | 52.53898 | -1.74121 | 6038 ft | 250 kts | 95° |
| 2026-05-03 20:28 | 52.53569 | -1.71292 | 6025 ft | 253 kts | 104° |
| 2026-05-03 20:28 | 52.53167 | -1.68484 | 6022 ft | 251 kts | 107° |
| 2026-05-03 20:28 | 52.52347 | -1.66025 | 6030 ft | 251 kts | 139° |
| 2026-05-03 20:29 | 52.50993 | -1.64019 | 6128 ft | 273 kts | 138° |
| 2026-05-03 20:29 | 52.49617 | -1.61829 | 6058 ft | 277 kts | 136° |
| 2026-05-03 20:29 | 52.48247 | -1.59597 | 6329 ft | 278 kts | 136° |
| 2026-05-03 20:29 | 52.46869 | -1.57355 | 7193 ft | 279 kts | 136° |
| 2026-05-03 20:30 | 52.45429 | -1.55250 | 8059 ft | 278 kts | 147° |
| 2026-05-03 20:30 | 52.43765 | -1.53579 | 8863 ft | 281 kts | 152° |
| 2026-05-03 20:30 | 52.42075 | -1.52012 | 9715 ft | 284 kts | 152° |
| 2026-05-03 20:30 | 52.40338 | -1.50357 | 10522 ft | 287 kts | 151° |
| 2026-05-03 20:31 | 52.38637 | -1.48699 | 11297 ft | 290 kts | 150° |
| 2026-05-03 20:31 | 52.36893 | -1.46985 | 12021 ft | 293 kts | 152° |
| 2026-05-03 20:31 | 52.35025 | -1.45697 | 12621 ft | 292 kts | 171° |
| 2026-05-03 20:31 | 52.33000 | -1.45157 | 13285 ft | 297 kts | 173° |
| 2026-05-03 20:32 | 52.30948 | -1.44635 | 14080 ft | 299 kts | 173° |
| 2026-05-03 20:32 | 52.28874 | -1.44090 | 14705 ft | 308 kts | 173° |
| 2026-05-03 20:32 | 52.26667 | -1.43500 | 14887 ft | 332 kts | 172° |
| 2026-05-03 20:32 | 52.24310 | -1.42858 | 15068 ft | 356 kts | 172° |
| 2026-05-03 20:33 | 52.21793 | -1.42161 | 15308 ft | 376 kts | 172° |
| 2026-05-03 20:33 | 52.19171 | -1.41426 | 15859 ft | 387 kts | 172° |
| 2026-05-03 20:33 | 52.16470 | -1.40665 | 16569 ft | 394 kts | 172° |
| 2026-05-03 20:33 | 52.13812 | -1.39915 | 17367 ft | 397 kts | 172° |
| 2026-05-03 20:34 | 52.11041 | -1.39135 | 18209 ft | 401 kts | 172° |
| 2026-05-03 20:34 | 52.08280 | -1.38360 | 18832 ft | 405 kts | 172° |
| 2026-05-03 20:34 | 52.05531 | -1.37589 | 18897 ft | 408 kts | 172° |
| 2026-05-03 20:34 | 52.02736 | -1.36807 | 18903 ft | 406 kts | 172° |
| 2026-05-03 20:35 | 51.99965 | -1.35986 | 18903 ft | 404 kts | 169° |
| 2026-05-03 20:35 | 51.97254 | -1.34722 | 18905 ft | 406 kts | 163° |
| 2026-05-03 20:35 | 51.94618 | -1.33001 | 19209 ft | 412 kts | 156° |
| 2026-05-03 20:35 | 51.92041 | -1.30894 | 19934 ft | 415 kts | 155° |
| 2026-05-03 20:36 | 51.89464 | -1.28791 | 20739 ft | 415 kts | 156° |
| 2026-05-03 20:36 | 51.86867 | -1.26689 | 21456 ft | 418 kts | 156° |
| 2026-05-03 20:36 | 51.84248 | -1.24581 | 22108 ft | 422 kts | 156° |
| 2026-05-03 20:36 | 51.81635 | -1.22484 | 22752 ft | 426 kts | 156° |
| 2026-05-03 20:37 | 51.78965 | -1.20345 | 23415 ft | 429 kts | 156° |
| 2026-05-03 20:37 | 51.76288 | -1.18190 | 24014 ft | 431 kts | 155° |
| 2026-05-03 20:37 | 51.73705 | -1.15671 | 24567 ft | 437 kts | 148° |
| 2026-05-03 20:37 | 51.71289 | -1.12649 | 25100 ft | 443 kts | 142° |
| 2026-05-03 20:38 | 51.69053 | -1.09189 | 25626 ft | 447 kts | 139° |
| 2026-05-03 20:38 | 51.66826 | -1.05652 | 26128 ft | 450 kts | 139° |
| 2026-05-03 20:38 | 51.64570 | -1.02141 | 26630 ft | 452 kts | 140° |
| 2026-05-03 20:38 | 51.62286 | -0.98628 | 27109 ft | 455 kts | 140° |
| 2026-05-03 20:39 | 51.60052 | -0.94982 | 27563 ft | 461 kts | 135° |
| 2026-05-03 20:39 | 51.58088 | -0.90879 | 28005 ft | 467 kts | 128° |
| 2026-05-03 20:39 | 51.56365 | -0.86401 | 28455 ft | 472 kts | 123° |
| 2026-05-03 20:39 | 51.54908 | -0.81629 | 28866 ft | 479 kts | 117° |
| 2026-05-03 20:40 | 51.53665 | -0.76716 | 29260 ft | 482 kts | 116° |
| 2026-05-03 20:40 | 51.52431 | -0.71727 | 29627 ft | 485 kts | 116° |
| 2026-05-03 20:40 | 51.51186 | -0.66693 | 29994 ft | 486 kts | 116° |
| 2026-05-03 20:40 | 51.49929 | -0.61654 | 30398 ft | 486 kts | 116° |
| 2026-05-03 20:41 | 51.48661 | -0.56625 | 30809 ft | 485 kts | 116° |
| 2026-05-03 20:41 | 51.47388 | -0.51622 | 31189 ft | 484 kts | 116° |
| 2026-05-03 20:41 | 51.46126 | -0.46697 | 31546 ft | 484 kts | 116° |
| 2026-05-03 20:41 | 51.44842 | -0.41706 | 31905 ft | 484 kts | 116° |
| 2026-05-03 20:42 | 51.43555 | -0.36713 | 32265 ft | 484 kts | 116° |
| 2026-05-03 20:42 | 51.42267 | -0.31724 | 32620 ft | 484 kts | 116° |
| 2026-05-03 20:42 | 51.40979 | -0.26748 | 32959 ft | 483 kts | 116° |
| 2026-05-03 20:42 | 51.39692 | -0.21781 | 33310 ft | 483 kts | 116° |
| 2026-05-03 20:43 | 51.38837 | -0.18484 | 33518 ft | 483 kts | 116° |
| 2026-05-03 20:43 | 51.37545 | -0.13514 | 33854 ft | 483 kts | 117° |
| 2026-05-03 20:43 | 51.36252 | -0.08547 | 34125 ft | 483 kts | 117° |
| 2026-05-03 20:43 | 51.34958 | -0.03593 | 34361 ft | 483 kts | 117° |
| 2026-05-03 20:44 | 51.33687 | 0.01401 | 34569 ft | 486 kts | 114° |
| 2026-05-03 20:44 | 51.32652 | 0.06579 | 34706 ft | 493 kts | 108° |
| 2026-05-03 20:44 | 51.31949 | 0.11970 | 34866 ft | 498 kts | 104° |
| 2026-05-03 20:45 | 51.30695 | 0.22896 | 34991 ft | 498 kts | 105° |
| 2026-05-03 20:45 | 51.29359 | 0.33706 | 34998 ft | 493 kts | 105° |
| 2026-05-03 20:46 | 51.28050 | 0.44435 | 35014 ft | 491 kts | 105° |
| 2026-05-03 20:46 | 51.26759 | 0.55084 | 35001 ft | 491 kts | 105° |
| 2026-05-03 20:47 | 51.25392 | 0.65782 | 34996 ft | 491 kts | 106° |
| 2026-05-03 20:47 | 51.23978 | 0.76481 | 34976 ft | 494 kts | 106° |
| 2026-05-03 20:48 | 51.22632 | 0.87230 | 34951 ft | 495 kts | 105° |
| 2026-05-03 20:48 | 51.21274 | 0.98010 | 34908 ft | 495 kts | 106° |
| 2026-05-03 20:49 | 51.19882 | 1.08785 | 34922 ft | 496 kts | 106° |
| 2026-05-03 20:49 | 51.18465 | 1.19540 | 34924 ft | 496 kts | 107° |
| 2026-05-03 20:50 | 51.17053 | 1.30233 | 34926 ft | 496 kts | 107° |
| 2026-05-03 20:50 | 51.15952 | 1.41107 | 34919 ft | 500 kts | 98° |
| 2026-05-03 20:51 | 51.15467 | 1.52190 | 34917 ft | 501 kts | 98° |
| 2026-05-03 20:51 | 51.14973 | 1.63257 | 34926 ft | 501 kts | 99° |
| 2026-05-03 20:52 | 51.14427 | 1.74321 | 34923 ft | 501 kts | 99° |
| 2026-05-03 20:52 | 51.13859 | 1.85399 | 34923 ft | 502 kts | 99° |
| 2026-05-03 20:53 | 51.13286 | 1.96468 | 34932 ft | 502 kts | 99° |
| 2026-05-03 20:53 | 51.12701 | 2.07549 | 34936 ft | 502 kts | 99° |
| 2026-05-03 20:54 | 51.12110 | 2.18571 | 34930 ft | 503 kts | 99° |
| 2026-05-03 20:54 | 51.11199 | 2.35229 | 34924 ft | 504 kts | 99° |
| 2026-05-03 20:55 | 51.10579 | 2.46331 | 34910 ft | 504 kts | 100° |
| 2026-05-03 20:55 | 51.09930 | 2.57451 | 34919 ft | 503 kts | 102° |
| 2026-05-03 20:56 | 51.08272 | 2.68114 | 34918 ft | 492 kts | 115° |
| 2026-05-03 20:56 | 51.05410 | 2.77835 | 34927 ft | 485 kts | 124° |
| 2026-05-03 20:57 | 51.02203 | 2.87270 | 34917 ft | 486 kts | 124° |
| 2026-05-03 20:57 | 50.98998 | 2.96752 | 34929 ft | 488 kts | 124° |
| 2026-05-03 20:58 | 50.95792 | 3.06308 | 34931 ft | 490 kts | 123° |
| 2026-05-03 20:58 | 50.92586 | 3.15857 | 34928 ft | 491 kts | 123° |
| 2026-05-03 20:59 | 50.89386 | 3.25352 | 34924 ft | 491 kts | 124° |
| 2026-05-03 20:59 | 50.86162 | 3.34878 | 34928 ft | 491 kts | 123° |
| 2026-05-03 21:00 | 50.83469 | 3.42805 | 34929 ft | 491 kts | 124° |
| 2026-05-03 21:00 | 50.79678 | 3.53921 | 34936 ft | 491 kts | 124° |
| 2026-05-03 21:01 | 50.76426 | 3.63414 | 34940 ft | 491 kts | 124° |
| 2026-05-03 21:01 | 50.73165 | 3.72902 | 34937 ft | 491 kts | 124° |
| 2026-05-03 21:02 | 50.69895 | 3.82379 | 34933 ft | 492 kts | 124° |
| 2026-05-03 21:02 | 50.66622 | 3.91830 | 34947 ft | 494 kts | 124° |